• Join FlightAware (Why Join?)
  • Login
  • US Flag 
09:13PM EDT


 

Airport Tracker/Info


-or-


 

Live Flight TrackerFlight Track Log ✈ SWA3497 ✈ 16-Apr-2013 ✈ KBWI - KALB

Flight Track Log - Related Links

Times and Time Zones

All times are in EDT time to prevent confusion due to time zone crossing. See the SWA3497 flight status page for this flight to view local times or setup timezone preferences in your user account.

Time Position Orientation Groundspeed Altitude Reporting Facility
EDT Latitude Longitude Course Direction KTS MPH feet Rate Location/Type
04:14PM 39.1333 -76.6333 284° West 194 223 2,500  Level Potomac TRACON
04:15PM 39.0833 -76.5833 142° Southeast 228 262 4,800 2,640 Climbing Potomac TRACON
04:16PM 39.0833 -76.4833 90° East 292 336 7,600 2,760 Climbing Potomac TRACON
04:18PM 39.1242 -76.2550 77° East 337 388 13,500 3,000 Climbing Washington Center
04:19PM 39.1654 -76.6270 284° West  Level FlightAware Approximate
04:19PM 39.1478 -76.1217 77° East 362 417 16,900  Level Washington Center
04:20PM 39.2003 -75.9961 62° Northeast 377 434 19,500 2,640 Climbing Washington Center
04:21PM 39.2714 -75.8839 51° Northeast 389 448 22,200 2,520 Climbing Washington Center
04:22PM 39.3467 -75.7633 51° Northeast 410 472 24,600 2,700 Climbing Washington Center
04:23PM 39.4239 -75.6425 50° Northeast 423 487 27,700 2,160 Climbing Washington Center
04:24PM 39.4989 -75.5242 51° Northeast 428 493 29,000 600 Climbing Washington Center
04:25PM 39.5758 -75.4003 51° Northeast 428 493 29,000  Level Washington Center
04:26PM 39.6589 -75.2736 50° Northeast 442 509 29,000  Level Washington Center
04:26PM 39.6936 -75.2306 44° Northeast 448 516 29,000  Level New York Center
04:27PM 39.7797 -75.1036 49° Northeast 458 527 29,000  Level New York Center
04:28PM 39.8656 -74.9764 49° Northeast 464 534 29,000  Level New York Center
04:29PM 39.9600 -74.8414 48° Northeast 474 545 29,000  Level New York Center
04:30PM 40.0453 -74.7214 47° Northeast 450 518 29,000  Level New York Center
04:31PM 40.1219 -74.6092 48° Northeast 455 524 29,000  Level New York Center
04:32PM 40.2200 -74.4758 46° Northeast 455 524 29,000  Level New York Center
04:33PM 40.3192 -74.3725 38° Northeast 455 524 29,000  Level New York Center
04:34PM 40.4183 -74.2658 39° Northeast 449 517 29,000  Level New York Center
04:35PM 40.5172 -74.1589 39° Northeast 449 517 29,000 -960 Level New York Center
04:37PM 40.6850 -73.9808 39° Northeast 436 502 26,400 -1,740 Descending Boston Center
04:38PM 40.7761 -73.8789 40° Northeast 428 493 24,100 -1,200 Descending Boston Center
04:39PM 40.8650 -73.7767 41° Northeast 428 493 24,000 -240 Descending Boston Center
04:40PM 40.9658 -73.7017 29° Northeast 417 480 23,700 -1,020 Descending Boston Center
04:41PM 41.0517 -73.6622 19° North 404 465 22,100 -2,040 Descending Boston Center
04:42PM 41.1831 -73.6453 North 392 451 19,700 -2,040 Descending Boston Center
04:43PM 41.2978 -73.6308 North 381 438 18,000 -1,200 Descending Boston Center
04:44PM 41.3897 -73.6189 North 375 432 17,400 -840 Descending Boston Center
04:45PM 41.5003 -73.6069 North 369 425 16,400 -960 Descending Boston Center
04:46PM 41.5900 -73.5919 North 362 417 15,500 -1,020 Descending Boston Center
04:47PM 41.7006 -73.5772 North 362 417 14,400 -1,020 Descending Boston Center
04:48PM 41.7861 -73.5678 North 355 409 13,500 -1,020 Descending Boston Center
04:49PM 41.8886 -73.5528 North 348 400 12,400 -1,080 Descending Boston Center
04:50PM 41.9825 -73.5406 North 337 388 11,400 -720 Descending Boston Center
04:51PM 42.0764 -73.5308 North 336 387 11,000 -240 Descending Boston Center
04:52PM 42.1575 -73.5294 North 332 382 11,000 -120 Level Boston Center
04:53PM 42.2556 -73.5342 358° North 319 367 10,800 -780 Descending Boston Center
04:54PM 42.3533 -73.5469 354° North 302 348 9,300 -1,380 Descending Boston Center
04:55PM 42.4136 -73.5706 344° North 272 313 8,100 -1,500 Descending Boston Center
04:56PM 42.4861 -73.6000 343° North 273 314 6,600 -1,500 Descending Boston Center
04:57PM 42.5608 -73.6325 342° North 265 305 5,100 -1,140 Descending Boston Center
04:57PM 42.5608 -73.6269 90° East 267 307 5,100 -1,140 Level Boston Center
04:58PM 42.6378 -73.6508 347° North 274 315 4,000 -1,140 Descending Boston Center
04:58PM 42.6503 -73.6511 359° North 267 307 4,000 -540 Level Boston Center
04:59PM 42.7106 -73.6664 349° North 267 307 3,500 -900 Descending Boston Center
04:59PM 42.7314 -73.6697 353° North 262 302 3,100 -1,020 Descending Boston Center
05:00PM 42.7811 -73.6906 343° North 261 300 2,500 -840 Descending Boston Center
05:00PM 42.7914 -73.6992 328° Northwest 255 293 2,300 -720 Descending Boston Center
05:01PM 42.8264 -73.7481 314° West 200 230 1,800 -240 Descending Boston Center
05:01PM 42.8600 -73.7289 23° Northeast 249 287 2,100 -540 Climbing Boston Center
05:02PM 42.8194 -73.8017 233° Southwest 121 139 1,300 -720 Descending Boston Center
05:03PM 42.7881 -73.8094 190° South 112 129 900 -420 Descending Boston Center
05:05PM 42.7491 -73.8020 180° South  Level Estimated
05:12PM 42.7491 -73.8020 180° South  Level Estimated
05:13PM 42.7491 -73.8020 180° South  Level Estimated
05:14PM 42.7491 -73.8020 180° South  Level Estimated